createdAt,value
2022-08-22T00:01:20.006Z,2.00
2022-08-22T00:02:52.977Z,2.80
2022-08-22T00:02:58.169Z,6.10
2022-08-22T00:04:17.854Z,1.90
2022-08-22T00:07:08.322Z,1.80
2022-08-22T00:09:52.720Z,2.00
2022-08-22T00:12:48.870Z,1.90
2022-08-22T00:15:42.955Z,1.90
2022-08-22T00:21:19.831Z,2.00
2022-08-22T00:24:04.640Z,1.80
2022-08-22T00:26:45.250Z,2.20
2022-08-22T00:29:21.995Z,1.80
2022-08-22T00:32:06.007Z,1.90
2022-08-22T00:34:51.310Z,2.00
2022-08-22T00:37:44.599Z,1.80
2022-08-22T00:40:13.793Z,2.40
2022-08-22T00:43:10.236Z,1.60
2022-08-22T00:45:55.295Z,1.80
2022-08-22T00:48:36.062Z,2.10
2022-08-22T00:51:31.796Z,1.90
2022-08-22T00:54:17.731Z,1.80
2022-08-22T00:57:05.819Z,2.00
2022-08-22T00:59:52.553Z,2.00
2022-08-22T01:02:49.225Z,2.10
2022-08-22T01:05:24.094Z,2.30
2022-08-22T01:08:25.880Z,2.00
2022-08-22T01:11:32.909Z,1.90
2022-08-22T01:14:34.989Z,1.80
2022-08-22T01:17:22.846Z,2.00
2022-08-22T01:20:28.838Z,2.00
2022-08-22T01:23:20.048Z,2.30
2022-08-22T01:26:26.172Z,2.00
2022-08-22T01:29:09.484Z,2.60
2022-08-22T01:31:51.921Z,2.20
2022-08-22T01:34:47.836Z,2.10
2022-08-22T01:37:44.369Z,2.30
2022-08-22T01:40:53.461Z,2.20
2022-08-22T01:43:58.779Z,2.60
2022-08-22T01:46:28.132Z,2.50
2022-08-22T01:49:26.990Z,2.00
2022-08-22T01:52:08.174Z,2.30
2022-08-22T01:54:49.858Z,2.60
2022-08-22T01:57:19.726Z,2.40
2022-08-22T01:59:53.058Z,2.90
2022-08-22T02:02:40.319Z,2.30
2022-08-22T02:05:49.191Z,2.30
2022-08-22T02:08:22.080Z,2.50
2022-08-22T02:10:59.357Z,2.50
2022-08-22T02:13:30.886Z,2.40
2022-08-22T02:16:42.077Z,1.80
2022-08-22T02:19:29.958Z,2.20
2022-08-22T02:22:04.922Z,2.40
2022-08-22T02:24:33.628Z,2.60
2022-08-22T02:27:18.552Z,2.30
2022-08-22T02:30:20.764Z,2.50
2022-08-22T02:32:58.926Z,2.70
2022-08-22T02:35:37.974Z,2.80
2022-08-22T02:38:09.408Z,2.60
2022-08-22T02:41:07.087Z,2.90
2022-08-22T02:43:58.756Z,2.60
2022-08-22T02:46:50.608Z,2.30
2022-08-22T02:49:43.850Z,2.60
2022-08-22T02:52:27.661Z,2.70
2022-08-22T02:55:04.200Z,2.60
2022-08-22T02:58:02.986Z,2.50
2022-08-22T03:00:43.547Z,2.70
2022-08-22T03:03:25.035Z,2.30
2022-08-22T03:06:01.424Z,2.80
2022-08-22T03:08:50.865Z,3.40
2022-08-22T03:11:33.075Z,2.90
2022-08-22T03:14:31.473Z,3.00
2022-08-22T03:17:17.525Z,2.90
2022-08-22T03:20:08.402Z,3.50
2022-08-22T03:23:00.927Z,2.70
2022-08-22T03:26:11.518Z,2.60
2022-08-22T03:29:10.071Z,3.20
2022-08-22T03:31:49.519Z,2.90
2022-08-22T03:34:27.459Z,2.70
2022-08-22T03:37:30.345Z,2.90
2022-08-22T03:40:22.564Z,2.70
2022-08-22T03:43:15.360Z,2.90
2022-08-22T03:46:18.437Z,2.80
2022-08-22T03:49:12.326Z,2.50
2022-08-22T03:51:55.735Z,3.00
2022-08-22T03:54:52.666Z,2.80
2022-08-22T03:57:32.917Z,2.80
2022-08-22T04:00:48.161Z,3.40
2022-08-22T04:03:36.348Z,3.00
2022-08-22T04:06:31.911Z,2.60
2022-08-22T04:09:29.178Z,3.00
2022-08-22T04:12:26.128Z,2.60
2022-08-22T04:15:13.270Z,2.70
2022-08-22T04:18:20.101Z,2.40
2022-08-22T04:20:57.410Z,2.80
2022-08-22T04:23:34.733Z,3.30
2022-08-22T04:26:12.861Z,2.90
2022-08-22T04:28:50.575Z,2.80
2022-08-22T04:31:26.288Z,2.70
2022-08-22T04:34:01.316Z,3.10
2022-08-22T04:36:46.372Z,2.90
2022-08-22T04:39:52.771Z,2.60
2022-08-22T04:42:32.795Z,2.80
2022-08-22T04:45:16.526Z,2.70
2022-08-22T04:48:22.543Z,2.70
2022-08-22T04:51:05.975Z,2.80
2022-08-22T04:54:10.931Z,3.10
2022-08-22T04:56:55.467Z,3.00
2022-08-22T04:59:26.709Z,2.50
2022-08-22T05:02:06.910Z,2.50
2022-08-22T05:04:47.524Z,2.50
2022-08-22T05:07:15.861Z,2.40
2022-08-22T05:10:12.150Z,2.30
2022-08-22T05:12:50.031Z,2.30
2022-08-22T05:15:23.532Z,2.30
2022-08-22T05:17:56.499Z,2.60
2022-08-22T05:20:28.138Z,2.50
2022-08-22T05:23:17.162Z,3.10
2022-08-22T05:25:51.365Z,2.60
2022-08-22T05:28:35.731Z,3.30
2022-08-22T05:31:09.377Z,3.20
2022-08-22T05:34:18.341Z,3.90
2022-08-22T05:36:54.722Z,3.50
2022-08-22T05:39:27.993Z,3.20
2022-08-22T05:42:01.288Z,2.90
2022-08-22T05:44:38.059Z,3.20
2022-08-22T05:47:36.953Z,2.70
2022-08-22T05:50:12.519Z,3.00
2022-08-22T05:52:59.700Z,2.70
2022-08-22T05:55:52.858Z,2.70
2022-08-22T05:58:39.490Z,2.50
2022-08-22T06:01:20.157Z,3.20
2022-08-22T06:04:12.187Z,3.00
2022-08-22T06:06:54.078Z,3.10
2022-08-22T06:09:35.339Z,2.50
2022-08-22T06:12:22.531Z,2.40
2022-08-22T06:15:03.460Z,2.90
2022-08-22T06:17:48.190Z,3.00
2022-08-22T06:20:29.217Z,3.40
2022-08-22T06:23:01.860Z,3.30
2022-08-22T06:25:36.509Z,3.00
2022-08-22T06:28:09.531Z,2.90
2022-08-22T06:30:40.315Z,3.40
2022-08-22T06:33:13.017Z,3.20
2022-08-22T06:36:07.567Z,3.40
2022-08-22T06:39:00.566Z,3.90
2022-08-22T06:41:33.700Z,3.10
2022-08-22T06:44:05.237Z,2.70
2022-08-22T06:46:38.220Z,3.20
2022-08-22T06:49:09.663Z,3.10
2022-08-22T06:51:39.853Z,2.90
2022-08-22T06:54:17.478Z,2.90
2022-08-22T06:56:49.461Z,3.00
2022-08-22T06:59:26.867Z,3.30
2022-08-22T07:02:04.875Z,3.10
2022-08-22T07:04:33.447Z,3.40
2022-08-22T07:07:03.361Z,3.20
2022-08-22T07:09:37.462Z,2.90
2022-08-22T07:12:16.191Z,3.50
2022-08-22T07:14:52.452Z,3.70
2022-08-22T07:17:27.336Z,2.80
2022-08-22T07:19:59.805Z,3.40
2022-08-22T07:22:32.281Z,3.60
2022-08-22T07:25:15.268Z,4.30
2022-08-22T07:28:21.452Z,3.70
2022-08-22T07:31:37.990Z,3.40
2022-08-22T07:34:26.028Z,3.60
2022-08-22T07:37:42.722Z,3.80
2022-08-22T07:40:27.655Z,3.60
2022-08-22T07:43:03.569Z,3.90
2022-08-22T07:45:38.142Z,4.10
2022-08-22T07:48:25.781Z,3.60
2022-08-22T07:51:19.134Z,4.00
2022-08-22T07:54:00.995Z,3.90
2022-08-22T07:56:35.777Z,3.40
2022-08-22T07:59:13.272Z,4.30
2022-08-22T08:01:49.214Z,4.00
2022-08-22T08:04:23.726Z,3.80
2022-08-22T08:06:56.078Z,3.60
2022-08-22T08:09:28.710Z,4.30
2022-08-22T08:11:59.549Z,4.70
2022-08-22T08:14:29.771Z,3.90
2022-08-22T08:17:05.320Z,4.40
2022-08-22T08:19:40.258Z,4.70
2022-08-22T08:22:19.208Z,3.90
2022-08-22T08:24:50.053Z,4.40
2022-08-22T08:27:44.080Z,5.10
2022-08-22T08:30:35.259Z,4.50
2022-08-22T08:33:24.241Z,4.60
2022-08-22T08:36:04.550Z,4.60
2022-08-22T08:38:44.183Z,4.30
2022-08-22T08:41:53.207Z,5.30
2022-08-22T08:44:38.697Z,4.80
2022-08-22T08:47:25.170Z,5.40
2022-08-22T08:49:56.442Z,5.30
2022-08-22T08:52:38.291Z,5.60
2022-08-22T08:55:21.801Z,5.70
2022-08-22T08:58:11.263Z,5.90
2022-08-22T09:00:49.989Z,5.90
2022-08-22T09:03:54.847Z,5.30
2022-08-22T09:06:28.940Z,5.30
2022-08-22T09:09:12.609Z,5.60
2022-08-22T09:11:59.390Z,5.80
2022-08-22T09:15:02.463Z,5.00
2022-08-22T09:18:08.711Z,6.30
2022-08-22T09:21:23.855Z,5.90
2022-08-22T09:24:24.492Z,5.90
2022-08-22T09:26:57.358Z,5.40
2022-08-22T09:29:55.147Z,6.80
2022-08-22T09:32:44.876Z,6.50
2022-08-22T09:35:39.176Z,6.40
2022-08-22T09:38:38.892Z,6.10
2022-08-22T09:41:39.210Z,6.80
2022-08-22T09:44:16.917Z,6.60
2022-08-22T09:47:24.644Z,6.10
2022-08-22T09:50:05.375Z,5.70
2022-08-22T09:52:37.097Z,6.10
2022-08-22T09:55:35.188Z,6.00
2022-08-22T09:58:17.339Z,6.00
2022-08-22T10:01:02.082Z,6.60
2022-08-22T10:03:45.730Z,6.80
2022-08-22T10:06:25.641Z,6.00
2022-08-22T10:09:06.073Z,5.40
2022-08-22T10:11:50.157Z,5.80
2022-08-22T10:14:28.337Z,5.60
2022-08-22T10:17:08.653Z,5.40
2022-08-22T10:19:53.328Z,6.30
2022-08-22T10:22:40.545Z,6.20
2022-08-22T10:25:35.600Z,6.20
2022-08-22T10:28:38.221Z,6.20
2022-08-22T10:31:15.655Z,6.80
2022-08-22T10:33:57.896Z,6.00
2022-08-22T10:36:49.660Z,6.10
2022-08-22T10:39:26.646Z,5.50
2022-08-22T10:42:01.159Z,5.30
2022-08-22T10:44:57.215Z,4.50
2022-08-22T10:47:37.639Z,5.10
2022-08-22T10:50:29.012Z,4.40
2022-08-22T10:53:30.972Z,4.20
2022-08-22T10:56:23.387Z,3.50
2022-08-22T10:59:13.530Z,3.70
2022-08-22T11:02:21.556Z,3.90
2022-08-22T11:05:08.550Z,4.00
2022-08-22T11:07:44.601Z,3.60
2022-08-22T11:10:53.870Z,4.50
2022-08-22T11:13:34.784Z,4.00
2022-08-22T11:16:41.726Z,4.30
2022-08-22T11:19:20.467Z,4.80
2022-08-22T11:22:28.312Z,5.30
2022-08-22T11:25:26.939Z,4.80
2022-08-22T11:28:49.321Z,4.80
2022-08-22T11:32:05.927Z,5.40
2022-08-22T11:34:42.242Z,4.90
2022-08-22T11:37:42.604Z,5.40
2022-08-22T11:40:28.030Z,5.00
2022-08-22T11:43:06.291Z,5.40
2022-08-22T11:45:51.623Z,5.20
2022-08-22T11:48:26.085Z,5.20
2022-08-22T11:51:03.357Z,4.90
2022-08-22T11:54:03.739Z,5.90
2022-08-22T11:56:40.229Z,4.80
2022-08-22T11:59:24.085Z,4.50
2022-08-22T12:02:00.297Z,3.60
2022-08-22T12:04:42.686Z,4.30
2022-08-22T12:07:25.822Z,3.50
2022-08-22T12:10:04.115Z,3.80
2022-08-22T12:12:32.546Z,4.50
2022-08-22T12:15:11.477Z,4.70
2022-08-22T12:18:05.014Z,4.80
2022-08-22T12:23:50.949Z,3.90
2022-08-22T12:26:31.762Z,3.40
2022-08-22T12:29:34.005Z,3.20
2022-08-22T12:32:18.115Z,2.70
2022-08-22T12:35:19.081Z,2.30
2022-08-22T12:38:28.185Z,2.40
2022-08-22T12:41:40.413Z,2.60
2022-08-22T12:44:45.030Z,2.50
2022-08-22T12:47:34.411Z,3.40
2022-08-22T12:50:03.128Z,3.10
2022-08-22T12:53:03.841Z,2.80
2022-08-22T12:55:46.343Z,3.00
2022-08-22T12:58:45.972Z,2.80
2022-08-22T13:01:24.224Z,3.20
2022-08-22T13:04:12.754Z,2.80
2022-08-22T13:07:07.886Z,3.20
2022-08-22T13:09:46.660Z,2.80
2022-08-22T13:12:44.335Z,3.10
2022-08-22T13:15:41.848Z,2.80
2022-08-22T13:18:30.024Z,3.20
2022-08-22T13:21:05.437Z,3.00
2022-08-22T13:23:47.410Z,2.80
2022-08-22T13:26:31.846Z,3.00
2022-08-22T13:29:25.128Z,2.10
2022-08-22T13:32:00.629Z,2.50
2022-08-22T13:35:05.941Z,2.20
2022-08-22T13:37:44.906Z,2.10
2022-08-22T13:40:23.586Z,2.00
2022-08-22T13:43:03.500Z,2.50
2022-08-22T13:45:35.332Z,2.00
2022-08-22T13:48:14.314Z,2.30
2022-08-22T13:51:02.349Z,1.90
2022-08-22T13:54:13.982Z,2.00
2022-08-22T13:57:17.662Z,2.00
2022-08-22T14:00:05.809Z,2.30
2022-08-22T14:03:09.672Z,2.30
2022-08-22T14:05:44.419Z,2.30
2022-08-22T14:08:28.432Z,2.40
2022-08-22T14:11:09.735Z,2.00
2022-08-22T14:13:50.046Z,2.30
2022-08-22T14:16:26.321Z,2.50
2022-08-22T14:19:09.022Z,2.40
2022-08-22T14:21:42.506Z,2.30
2022-08-22T14:24:14.646Z,2.10
2022-08-22T14:26:53.520Z,2.10
2022-08-22T14:29:32.318Z,2.30
2022-08-22T14:32:13.348Z,2.70
2022-08-22T14:34:45.370Z,2.70
2022-08-22T14:37:35.719Z,2.50
2022-08-22T14:40:32.711Z,2.30
2022-08-22T14:43:09.963Z,2.60
2022-08-22T14:45:44.238Z,2.50
2022-08-22T14:48:31.190Z,2.80
2022-08-22T14:51:27.033Z,3.20
2022-08-22T14:54:21.632Z,2.60
2022-08-22T14:59:43.843Z,2.90
2022-08-22T15:02:31.681Z,2.70
2022-08-22T15:05:17.312Z,2.90
2022-08-22T15:07:59.591Z,3.70
2022-08-22T15:10:33.182Z,3.30
2022-08-22T15:13:08.314Z,3.30
2022-08-22T15:15:49.781Z,3.30
2022-08-22T15:18:23.375Z,3.00
2022-08-22T15:21:04.057Z,2.50
2022-08-22T15:23:45.391Z,2.60
2022-08-22T15:26:32.237Z,2.70
2022-08-22T15:29:10.107Z,2.70
2022-08-22T15:31:41.572Z,3.10
2022-08-22T15:34:30.599Z,2.70
2022-08-22T15:37:07.820Z,3.00
2022-08-22T15:39:58.384Z,2.70
2022-08-22T15:42:32.919Z,3.10
2022-08-22T15:45:02.444Z,3.10
2022-08-22T15:47:47.145Z,3.30
2022-08-22T15:50:41.852Z,2.60
2022-08-22T15:53:33.586Z,2.60
2022-08-22T15:56:26.789Z,3.10
2022-08-22T15:59:24.418Z,2.90
2022-08-22T16:02:12.841Z,3.00
2022-08-22T16:04:52.298Z,2.60
2022-08-22T16:07:35.147Z,2.90
2022-08-22T16:10:12.348Z,2.80
2022-08-22T16:12:46.228Z,2.30
2022-08-22T16:15:56.500Z,2.80
2022-08-22T16:18:34.469Z,3.00
2022-08-22T16:21:23.237Z,2.60
2022-08-22T16:23:51.475Z,2.70
2022-08-22T16:26:36.908Z,2.50
2022-08-22T16:29:17.346Z,2.60
2022-08-22T16:31:46.367Z,2.10
2022-08-22T16:34:20.721Z,2.20
2022-08-22T16:36:55.045Z,2.60
2022-08-22T16:39:23.325Z,2.20
2022-08-22T16:42:16.476Z,2.50
2022-08-22T16:44:54.679Z,2.80
2022-08-22T16:47:43.299Z,3.00
2022-08-22T16:50:38.789Z,2.20
2022-08-22T16:53:30.097Z,2.90
2022-08-22T16:56:20.677Z,2.40
2022-08-22T16:59:23.523Z,2.40
2022-08-22T17:02:07.187Z,2.80
2022-08-22T17:04:38.921Z,2.70
2022-08-22T17:07:27.929Z,2.50
2022-08-22T17:10:19.802Z,2.50
2022-08-22T17:12:51.061Z,2.80
2022-08-22T17:15:49.948Z,2.80
2022-08-22T17:18:47.284Z,2.90
2022-08-22T17:21:37.825Z,2.70
2022-08-22T17:24:40.938Z,3.30
2022-08-22T17:27:27.472Z,3.70
2022-08-22T17:30:13.817Z,3.00
2022-08-22T17:32:42.683Z,3.80
2022-08-22T17:35:26.993Z,3.20
2022-08-22T17:38:45.386Z,3.00
2022-08-22T17:41:32.271Z,3.20
2022-08-22T17:44:24.236Z,3.20
2022-08-22T17:47:00.386Z,3.40
2022-08-22T17:49:40.943Z,2.90
2022-08-22T17:52:35.130Z,3.20
2022-08-22T17:55:27.248Z,3.20
2022-08-22T17:58:37.505Z,4.00
2022-08-22T18:01:14.779Z,3.30
2022-08-22T18:03:53.650Z,3.50
2022-08-22T18:06:28.039Z,3.20
2022-08-22T18:09:16.608Z,2.80
2022-08-22T18:12:06.925Z,3.10
2022-08-22T18:14:56.905Z,3.10
2022-08-22T18:17:35.191Z,3.20
2022-08-22T18:20:09.826Z,2.70
2022-08-22T18:23:03.736Z,3.50
2022-08-22T18:25:38.940Z,3.50
2022-08-22T18:28:27.830Z,3.40
2022-08-22T18:31:19.929Z,3.90
2022-08-22T18:33:59.797Z,13.20
2022-08-22T18:36:35.170Z,8.60
2022-08-22T18:39:14.110Z,6.70
2022-08-22T18:42:11.291Z,5.00
2022-08-22T18:44:40.458Z,5.30
2022-08-22T18:47:33.374Z,5.10
2022-08-22T18:50:34.587Z,5.50
2022-08-22T18:53:24.559Z,4.70
2022-08-22T18:56:09.388Z,4.70
2022-08-22T18:59:11.060Z,4.70
2022-08-22T19:01:47.915Z,4.10
2022-08-22T19:04:31.720Z,4.30
2022-08-22T19:07:39.491Z,4.40
2022-08-22T19:10:36.553Z,4.30
2022-08-22T19:13:26.878Z,5.00
2022-08-22T19:16:13.810Z,4.60
2022-08-22T19:19:19.944Z,4.10
2022-08-22T19:22:24.982Z,4.30
2022-08-22T19:25:02.735Z,3.90
2022-08-22T19:27:34.752Z,4.20
2022-08-22T19:30:27.065Z,4.00
2022-08-22T19:32:59.990Z,4.10
2022-08-22T19:35:37.952Z,4.10
2022-08-22T19:38:08.610Z,4.40
2022-08-22T19:40:58.605Z,3.90
2022-08-22T19:43:30.381Z,4.10
2022-08-22T19:46:04.402Z,4.10
2022-08-22T19:48:49.019Z,3.90
2022-08-22T19:51:29.029Z,3.40
2022-08-22T19:54:30.645Z,3.80
2022-08-22T19:57:07.502Z,4.40
2022-08-22T19:59:54.256Z,4.10
2022-08-22T20:02:35.520Z,4.00
2022-08-22T20:05:13.375Z,4.10
2022-08-22T20:08:06.792Z,4.10
2022-08-22T20:10:40.318Z,3.80
2022-08-22T20:13:31.667Z,4.20
2022-08-22T20:16:43.212Z,4.10
2022-08-22T20:19:12.089Z,4.00
2022-08-22T20:21:59.082Z,3.70
2022-08-22T20:24:49.594Z,3.70
2022-08-22T20:27:22.032Z,3.20
2022-08-22T20:30:00.484Z,3.80
2022-08-22T20:32:32.059Z,3.70
2022-08-22T20:35:04.253Z,3.40
2022-08-22T20:38:04.900Z,3.20
2022-08-22T20:40:55.262Z,3.30
2022-08-22T20:43:25.668Z,3.80
2022-08-22T20:46:12.584Z,2.90
2022-08-22T20:48:45.168Z,2.60
2022-08-22T20:51:18.293Z,3.20
2022-08-22T20:53:53.616Z,3.40
2022-08-22T20:56:37.100Z,2.80
2022-08-22T20:59:22.053Z,3.00
2022-08-22T21:02:15.010Z,2.70
2022-08-22T21:04:57.874Z,2.80
2022-08-22T21:07:31.773Z,2.90
2022-08-22T21:10:36.480Z,2.70
2022-08-22T21:13:06.744Z,3.10
2022-08-22T21:15:55.458Z,3.50
2022-08-22T21:18:35.572Z,2.80
2022-08-22T21:21:08.052Z,3.00
2022-08-22T21:23:46.740Z,2.30
2022-08-22T21:26:29.875Z,2.80
2022-08-22T21:29:06.935Z,2.80
2022-08-22T21:32:04.750Z,2.40
2022-08-22T21:34:42.957Z,2.60
2022-08-22T21:37:29.600Z,3.10
2022-08-22T21:40:15.452Z,2.50
2022-08-22T21:43:07.012Z,2.60
2022-08-22T21:45:38.637Z,2.90
2022-08-22T21:48:40.225Z,2.40
2022-08-22T21:51:27.623Z,2.40
2022-08-22T21:54:21.644Z,2.20
2022-08-22T21:56:54.479Z,2.30
2022-08-22T21:59:51.980Z,2.60
2022-08-22T22:02:39.918Z,2.30
2022-08-22T22:05:15.203Z,2.30
2022-08-22T22:07:46.539Z,2.20
2022-08-22T22:10:20.806Z,2.20
2022-08-22T22:12:53.604Z,1.90
2022-08-22T22:15:26.030Z,1.90
2022-08-22T22:17:55.891Z,2.00
2022-08-22T22:20:26.483Z,2.40
2022-08-22T22:22:56.030Z,2.20
2022-08-22T22:25:39.506Z,2.40
2022-08-22T22:28:22.267Z,2.50
2022-08-22T22:30:53.611Z,2.20
2022-08-22T22:33:29.170Z,1.90
2022-08-22T22:36:00.806Z,1.80
2022-08-22T22:38:29.411Z,2.20
2022-08-22T22:40:58.882Z,1.90
2022-08-22T22:43:28.202Z,1.90
2022-08-22T22:45:56.791Z,1.80
2022-08-22T22:48:25.327Z,1.70
2022-08-22T22:50:55.341Z,1.80
2022-08-22T22:53:33.669Z,2.10
2022-08-22T22:56:13.189Z,1.80
2022-08-22T22:58:42.461Z,1.60
2022-08-22T23:01:15.651Z,1.70
2022-08-22T23:03:45.750Z,2.00
2022-08-22T23:06:20.161Z,1.80
2022-08-22T23:08:49.721Z,1.70
2022-08-22T23:11:21.356Z,1.80
2022-08-22T23:13:51.038Z,1.60
2022-08-22T23:16:26.797Z,1.80
2022-08-22T23:18:55.871Z,1.60
2022-08-22T23:21:28.538Z,1.60
2022-08-22T23:23:59.957Z,1.60
2022-08-22T23:26:30.237Z,1.70
2022-08-22T23:28:59.880Z,1.70
2022-08-22T23:31:33.130Z,2.00
2022-08-22T23:34:15.041Z,1.70
2022-08-22T23:36:47.562Z,2.00
2022-08-22T23:39:18.376Z,2.00
2022-08-22T23:41:47.566Z,2.20
2022-08-22T23:44:20.442Z,1.90
2022-08-22T23:46:49.741Z,1.90
2022-08-22T23:49:19.478Z,1.90
2022-08-22T23:51:50.019Z,2.00
2022-08-22T23:54:19.370Z,1.90
2022-08-22T23:56:55.067Z,1.90
2022-08-22T23:59:30.719Z,1.90
